DLH9PV LFML-EDDM
Flight info
| Callsign | DLH9PV |
|---|---|
| Flight time | N/A |
| Altitude | 30000 |
| Route | ETREK DCT LUXAN DCT LTP DCT SOPLO DCT OMASI DCT KINNI DCT LAMUR DCT KORED DCT NUNRI T103 BETOS BETOS1B |
| Aircraft | A320/M-SDE3FGHIRWY/LB1 |
Departure
| Time | 2026-05-05 07:10 |
|---|---|
| Airport | Marseille Provence Airport (LFML) |
Arrival
| Time | N/A |
|---|---|
| Airport | Munich Airport (EDDM) |
| Time | Latitude | Longitude | Altitude | Speed | Heading |
|---|---|---|---|---|---|
| 2026-05-05 06:41 | 43.44015 | 5.22158 | 40 ft | 0 kts | 34° |
| 2026-05-05 07:02 | 43.44008 | 5.22152 | 40 ft | 4 kts | 34° |
| 2026-05-05 07:02 | 43.43986 | 5.22131 | 35 ft | 4 kts | 30° |
| 2026-05-05 07:02 | 43.43962 | 5.22115 | 39 ft | 4 kts | 15° |
| 2026-05-05 07:02 | 43.43937 | 5.22113 | 39 ft | 4 kts | 331° |
| 2026-05-05 07:03 | 43.43930 | 5.22119 | 37 ft | 0 kts | 314° |
| 2026-05-05 07:06 | 43.43934 | 5.22113 | 39 ft | 4 kts | 313° |
| 2026-05-05 07:06 | 43.43979 | 5.22047 | 39 ft | 15 kts | 313° |
| 2026-05-05 07:06 | 43.44068 | 5.21923 | 36 ft | 20 kts | 314° |
| 2026-05-05 07:07 | 43.44099 | 5.21795 | 33 ft | 15 kts | 233° |
| 2026-05-05 07:07 | 43.44046 | 5.21725 | 33 ft | 16 kts | 224° |
| 2026-05-05 07:07 | 43.43961 | 5.21612 | 34 ft | 18 kts | 224° |
| 2026-05-05 07:07 | 43.43930 | 5.21469 | 31 ft | 19 kts | 307° |
| 2026-05-05 07:08 | 43.44028 | 5.21330 | 29 ft | 22 kts | 313° |
| 2026-05-05 07:08 | 43.44144 | 5.21167 | 25 ft | 26 kts | 315° |
| 2026-05-05 07:08 | 43.44271 | 5.20974 | 21 ft | 27 kts | 305° |
| 2026-05-05 07:08 | 43.44299 | 5.20806 | 19 ft | 15 kts | 238° |
| 2026-05-05 07:09 | 43.44227 | 5.20688 | 17 ft | 17 kts | 233° |
| 2026-05-05 07:09 | 43.44167 | 5.20541 | 18 ft | 18 kts | 242° |
| 2026-05-05 07:09 | 43.44096 | 5.20392 | 16 ft | 16 kts | 212° |
| 2026-05-05 07:09 | 43.44013 | 5.20466 | 16 ft | 17 kts | 134° |
| 2026-05-05 07:10 | 43.43805 | 5.20751 | 21 ft | 79 kts | 135° |
| 2026-05-05 07:10 | 43.43261 | 5.21503 | 44 ft | 140 kts | 135° |
| 2026-05-05 07:10 | 43.42509 | 5.22505 | 476 ft | 152 kts | 138° |
| 2026-05-05 07:10 | 43.41929 | 5.23724 | 1109 ft | 157 kts | 107° |
| 2026-05-05 07:11 | 43.41878 | 5.25325 | 1456 ft | 182 kts | 76° |
| 2026-05-05 07:11 | 43.42333 | 5.27059 | 1768 ft | 202 kts | 71° |
| 2026-05-05 07:11 | 43.42955 | 5.28875 | 2168 ft | 220 kts | 47° |
| 2026-05-05 07:11 | 43.44283 | 5.29900 | 2697 ft | 230 kts | 6° |
| 2026-05-05 07:12 | 43.45935 | 5.29705 | 3112 ft | 251 kts | 343° |
| 2026-05-05 07:12 | 43.46540 | 5.29459 | 3298 ft | 257 kts | 339° |
| 2026-05-05 07:13 | 43.47822 | 5.28809 | 3881 ft | 262 kts | 335° |
| 2026-05-05 07:13 | 43.49522 | 5.27848 | 4802 ft | 266 kts | 334° |
| 2026-05-05 07:13 | 43.51217 | 5.26903 | 5723 ft | 268 kts | 335° |
| 2026-05-05 07:13 | 43.51456 | 5.26774 | 5846 ft | 269 kts | 335° |
| 2026-05-05 07:14 | 43.53216 | 5.25854 | 6728 ft | 272 kts | 336° |
| 2026-05-05 07:14 | 43.55017 | 5.24966 | 7536 ft | 277 kts | 337° |
| 2026-05-05 07:14 | 43.56861 | 5.24097 | 8355 ft | 283 kts | 338° |
| 2026-05-05 07:14 | 43.58744 | 5.23236 | 9154 ft | 288 kts | 338° |
| 2026-05-05 07:15 | 43.60668 | 5.22369 | 9947 ft | 294 kts | 338° |
| 2026-05-05 07:15 | 43.62661 | 5.21473 | 10371 ft | 312 kts | 338° |
| 2026-05-05 07:15 | 43.64799 | 5.20508 | 10604 ft | 335 kts | 339° |
| 2026-05-05 07:15 | 43.67081 | 5.19476 | 10970 ft | 352 kts | 339° |
| 2026-05-05 07:16 | 43.69428 | 5.18424 | 11626 ft | 358 kts | 339° |
| 2026-05-05 07:16 | 43.71811 | 5.17356 | 12355 ft | 361 kts | 338° |
| 2026-05-05 07:16 | 43.74208 | 5.16252 | 13074 ft | 365 kts | 338° |
| 2026-05-05 07:16 | 43.76625 | 5.15116 | 13766 ft | 369 kts | 338° |
| 2026-05-05 07:17 | 43.79064 | 5.13960 | 14398 ft | 373 kts | 338° |
| 2026-05-05 07:17 | 43.81530 | 5.12781 | 15014 ft | 376 kts | 337° |
| 2026-05-05 07:17 | 43.84021 | 5.11586 | 15624 ft | 380 kts | 337° |
| 2026-05-05 07:17 | 43.86535 | 5.10382 | 16233 ft | 384 kts | 337° |
| 2026-05-05 07:18 | 43.89118 | 5.09345 | 16831 ft | 391 kts | 345° |
| 2026-05-05 07:18 | 43.91820 | 5.08715 | 17418 ft | 396 kts | 348° |
| 2026-05-05 07:18 | 43.94522 | 5.08105 | 18014 ft | 400 kts | 347° |
| 2026-05-05 07:18 | 43.97278 | 5.07481 | 18557 ft | 403 kts | 347° |
| 2026-05-05 07:19 | 44.00061 | 5.06845 | 19080 ft | 407 kts | 347° |
| 2026-05-05 07:19 | 44.02871 | 5.06199 | 19611 ft | 411 kts | 347° |
| 2026-05-05 07:19 | 44.05708 | 5.05544 | 20146 ft | 415 kts | 347° |
| 2026-05-05 07:19 | 44.08568 | 5.04887 | 20654 ft | 418 kts | 347° |
| 2026-05-05 07:20 | 44.11456 | 5.04229 | 21176 ft | 422 kts | 347° |
| 2026-05-05 07:20 | 44.14363 | 5.03567 | 21663 ft | 426 kts | 348° |
| 2026-05-05 07:20 | 44.17302 | 5.02894 | 22130 ft | 430 kts | 347° |
| 2026-05-05 07:20 | 44.20262 | 5.02212 | 22617 ft | 433 kts | 347° |
| 2026-05-05 07:21 | 44.23251 | 5.01518 | 23077 ft | 437 kts | 347° |
| 2026-05-05 07:21 | 44.26256 | 5.00818 | 23513 ft | 440 kts | 347° |
| 2026-05-05 07:21 | 44.29286 | 5.00113 | 23872 ft | 443 kts | 347° |
| 2026-05-05 07:21 | 44.32335 | 4.99407 | 24254 ft | 446 kts | 348° |
| 2026-05-05 07:22 | 44.35404 | 4.98697 | 24606 ft | 448 kts | 348° |
| 2026-05-05 07:22 | 44.38491 | 4.97983 | 24954 ft | 451 kts | 348° |
| 2026-05-05 07:22 | 44.41594 | 4.97264 | 25304 ft | 453 kts | 347° |
| 2026-05-05 07:22 | 44.44716 | 4.96541 | 25715 ft | 456 kts | 347° |
| 2026-05-05 07:23 | 44.47856 | 4.95814 | 26130 ft | 459 kts | 347° |
| 2026-05-05 07:23 | 44.51011 | 4.95081 | 26486 ft | 462 kts | 348° |
| 2026-05-05 07:23 | 44.54196 | 4.94335 | 26766 ft | 465 kts | 348° |
| 2026-05-05 07:23 | 44.57404 | 4.93583 | 27121 ft | 468 kts | 348° |
| 2026-05-05 07:24 | 44.60620 | 4.92831 | 27475 ft | 471 kts | 348° |
| 2026-05-05 07:24 | 44.63859 | 4.92075 | 27800 ft | 473 kts | 348° |
| 2026-05-05 07:24 | 44.67117 | 4.91317 | 28145 ft | 476 kts | 348° |
| 2026-05-05 07:24 | 44.70389 | 4.90547 | 28455 ft | 478 kts | 347° |
| 2026-05-05 07:25 | 44.73606 | 4.89400 | 28733 ft | 477 kts | 338° |
| 2026-05-05 07:25 | 44.76707 | 4.87731 | 28986 ft | 477 kts | 335° |
| 2026-05-05 07:25 | 44.79793 | 4.85992 | 29236 ft | 479 kts | 335° |
| 2026-05-05 07:25 | 44.82890 | 4.84240 | 29477 ft | 481 kts | 335° |
| 2026-05-05 07:26 | 44.85905 | 4.82533 | 29717 ft | 482 kts | 335° |
| 2026-05-05 07:26 | 44.88448 | 4.81092 | 29886 ft | 482 kts | 335° |
| 2026-05-05 07:26 | 44.91534 | 4.79349 | 29922 ft | 476 kts | 335° |
| 2026-05-05 07:27 | 44.97669 | 4.75888 | 29918 ft | 473 kts | 335° |
| 2026-05-05 07:27 | 45.03780 | 4.72421 | 29911 ft | 473 kts | 335° |
| 2026-05-05 07:28 | 45.09957 | 4.69200 | 29904 ft | 476 kts | 347° |
| 2026-05-05 07:28 | 45.13214 | 4.68793 | 29903 ft | 479 kts | 2° |
| 2026-05-05 07:28 | 45.16494 | 4.69568 | 29903 ft | 478 kts | 18° |
| 2026-05-05 07:28 | 45.19523 | 4.71462 | 29894 ft | 475 kts | 33° |
| 2026-05-05 07:29 | 45.21153 | 4.73093 | 29886 ft | 473 kts | 43° |